createdAt,value
2018-04-19T00:01:07.599Z,78.98
2018-04-19T00:03:35.931Z,79.31
2018-04-19T00:06:04.270Z,79.21
2018-04-19T00:08:32.616Z,79.29
2018-04-19T00:11:00.979Z,79.43
2018-04-19T00:13:29.332Z,79.95
2018-04-19T00:15:57.658Z,79.88
2018-04-19T00:18:26.788Z,80.31
2018-04-19T00:20:55.129Z,80.12
2018-04-19T00:23:23.492Z,79.97
2018-04-19T00:25:51.836Z,80.24
2018-04-19T00:28:20.182Z,80.13
2018-04-19T00:30:48.520Z,80.73
2018-04-19T00:33:16.865Z,80.58
2018-04-19T00:35:45.203Z,80.63
2018-04-19T00:38:13.555Z,80.67
2018-04-19T00:40:41.902Z,80.72
2018-04-19T00:43:10.236Z,80.88
2018-04-19T00:45:38.563Z,82.18
2018-04-19T00:48:06.886Z,81.97
2018-04-19T00:50:35.259Z,82.09
2018-04-19T00:53:09.502Z,82.07
2018-04-19T00:55:37.845Z,82.22
2018-04-19T00:58:06.183Z,82.77
2018-04-19T01:00:34.528Z,82.45
2018-04-19T01:03:02.859Z,82.75
2018-04-19T01:05:31.216Z,82.93
2018-04-19T01:07:59.556Z,83.04
2018-04-19T01:10:27.895Z,83.22
2018-04-19T01:12:56.239Z,83.29
2018-04-19T01:15:24.599Z,82.87
2018-04-19T01:17:52.928Z,83.40
2018-04-19T01:20:21.336Z,83.09
2018-04-19T01:22:49.676Z,83.22
2018-04-19T01:25:18.026Z,83.54
2018-04-19T01:27:46.363Z,83.15
2018-04-19T01:30:14.725Z,83.29
2018-04-19T01:32:43.071Z,84.18
2018-04-19T01:35:11.409Z,83.69
2018-04-19T01:37:39.758Z,83.57
2018-04-19T01:40:08.086Z,84.05
2018-04-19T01:42:36.446Z,84.63
2018-04-19T01:45:04.780Z,84.62
2018-04-19T01:47:33.108Z,84.91
2018-04-19T01:50:01.439Z,85.29
2018-04-19T01:52:29.790Z,85.37
2018-04-19T01:54:58.128Z,85.79
2018-04-19T01:57:26.481Z,85.31
2018-04-19T01:59:54.824Z,85.63
2018-04-19T02:02:23.175Z,85.77
2018-04-19T02:04:51.537Z,85.88
2018-04-19T02:07:19.921Z,85.43
2018-04-19T02:09:48.255Z,85.60
2018-04-19T02:12:16.601Z,85.95
2018-04-19T02:14:44.980Z,85.96
2018-04-19T02:17:13.326Z,85.98
2018-04-19T02:19:41.702Z,85.80
2018-04-19T02:22:10.038Z,85.71
2018-04-19T02:24:38.383Z,86.38
2018-04-19T02:27:06.768Z,86.02
2018-04-19T02:29:35.103Z,86.75
2018-04-19T02:32:03.456Z,86.71
2018-04-19T02:34:31.812Z,86.48
2018-04-19T02:37:00.161Z,86.69
2018-04-19T02:39:28.487Z,86.57
2018-04-19T02:41:56.838Z,86.32
2018-04-19T02:44:25.184Z,86.38
2018-04-19T02:46:53.512Z,86.54
2018-04-19T02:49:21.921Z,86.85
2018-04-19T02:51:50.270Z,86.92
2018-04-19T02:54:18.632Z,87.25
2018-04-19T02:56:46.963Z,87.17
2018-04-19T02:59:16.267Z,87.36
2018-04-19T03:01:44.595Z,87.78
2018-04-19T03:04:12.992Z,87.58
2018-04-19T03:06:41.324Z,87.42
2018-04-19T03:09:09.648Z,87.70
2018-04-19T03:11:37.999Z,87.73
2018-04-19T03:14:06.329Z,88.04
2018-04-19T03:16:34.659Z,87.67
2018-04-19T03:19:03.009Z,88.21
2018-04-19T03:21:31.357Z,88.15
2018-04-19T03:23:59.687Z,88.05
2018-04-19T03:26:28.011Z,88.10
2018-04-19T03:28:56.392Z,88.00
2018-04-19T03:31:24.716Z,88.12
2018-04-19T03:33:53.079Z,88.15
2018-04-19T03:36:21.420Z,88.40
2018-04-19T03:38:49.756Z,88.65
2018-04-19T03:41:18.096Z,88.51
2018-04-19T03:43:46.440Z,88.06
2018-04-19T03:46:14.774Z,88.09
2018-04-19T03:48:43.110Z,88.26
2018-04-19T03:51:11.469Z,88.40
2018-04-19T03:53:39.795Z,88.26
2018-04-19T03:56:08.132Z,88.02
2018-04-19T03:58:36.477Z,88.03
2018-04-19T04:01:04.859Z,88.24
2018-04-19T04:03:33.147Z,88.44
2018-04-19T04:06:01.496Z,88.35
2018-04-19T04:08:29.827Z,88.37
2018-04-19T04:10:58.176Z,88.44
2018-04-19T04:13:26.507Z,88.54
2018-04-19T04:15:54.893Z,88.40
2018-04-19T04:18:34.899Z,88.11
2018-04-19T04:21:15.037Z,87.77
2018-04-19T04:23:52.089Z,87.66
2018-04-19T04:26:20.447Z,87.85
2018-04-19T04:28:48.810Z,88.01
2018-04-19T04:31:17.181Z,87.70
2018-04-19T04:33:45.503Z,87.36
2018-04-19T04:36:13.841Z,87.24
2018-04-19T04:38:42.188Z,87.08
2018-04-19T04:41:10.519Z,86.86
2018-04-19T04:43:38.882Z,86.29
2018-04-19T04:46:07.737Z,88.30
2018-04-19T04:48:36.076Z,85.67
2018-04-19T04:51:04.418Z,84.60
2018-04-19T04:53:32.765Z,84.40
2018-04-19T04:56:01.100Z,83.31
2018-04-19T04:58:29.452Z,82.98
2018-04-19T05:00:57.776Z,83.69
2018-04-19T05:03:26.128Z,83.67
2018-04-19T05:05:54.466Z,83.60
2018-04-19T05:08:22.817Z,83.41
2018-04-19T05:10:51.163Z,83.91
2018-04-19T05:13:19.516Z,83.30
2018-04-19T05:15:47.864Z,83.18
2018-04-19T05:18:16.199Z,82.95
2018-04-19T05:20:44.567Z,82.50
2018-04-19T05:23:12.921Z,82.34
2018-04-19T05:25:41.266Z,82.41
2018-04-19T05:28:09.628Z,82.20
2018-04-19T05:30:37.994Z,81.49
2018-04-19T05:33:06.329Z,80.62
2018-04-19T05:35:34.669Z,79.32
2018-04-19T05:38:03.012Z,75.37
2018-04-19T05:40:31.351Z,71.96
2018-04-19T05:43:06.437Z,69.40
2018-04-19T05:45:34.864Z,69.19
2018-04-19T05:48:03.203Z,68.83
2018-04-19T05:50:31.547Z,68.99
2018-04-19T05:52:59.883Z,67.67
2018-04-19T05:55:28.243Z,66.16
2018-04-19T05:57:56.580Z,66.09
2018-04-19T06:00:24.953Z,64.61
2018-04-19T06:02:53.276Z,64.02
2018-04-19T06:05:21.614Z,64.62
2018-04-19T06:07:49.945Z,62.23
2018-04-19T06:10:18.293Z,57.55
2018-04-19T06:12:46.625Z,55.33
2018-04-19T06:15:14.993Z,52.82
2018-04-19T06:17:43.302Z,50.31
2018-04-19T06:20:11.639Z,50.67
2018-04-19T06:22:39.979Z,48.96
2018-04-19T06:25:08.291Z,50.38
2018-04-19T06:27:36.640Z,52.13
2018-04-19T06:30:04.966Z,51.45
2018-04-19T06:32:33.306Z,49.08
2018-04-19T06:35:01.646Z,48.60
2018-04-19T06:37:30.060Z,47.06
2018-04-19T06:39:58.412Z,47.11
2018-04-19T06:42:26.743Z,46.60
2018-04-19T06:44:55.082Z,47.17
2018-04-19T06:47:23.439Z,47.32
2018-04-19T06:49:51.796Z,45.02
2018-04-19T06:52:20.121Z,45.70
2018-04-19T06:54:48.434Z,44.02
2018-04-19T06:57:16.779Z,42.38
2018-04-19T06:59:45.099Z,42.68
2018-04-19T07:02:13.455Z,43.69
2018-04-19T07:04:41.806Z,41.45
2018-04-19T07:07:10.131Z,40.96
2018-04-19T07:09:38.477Z,40.54
2018-04-19T07:12:06.811Z,40.05
2018-04-19T07:14:35.176Z,38.86
2018-04-19T07:17:03.480Z,38.51
2018-04-19T07:19:31.832Z,38.35
2018-04-19T07:22:00.174Z,39.42
2018-04-19T07:24:28.504Z,40.10
2018-04-19T07:26:56.840Z,38.02
2018-04-19T07:29:25.185Z,39.13
2018-04-19T07:31:53.532Z,39.82
2018-04-19T07:34:21.890Z,38.75
2018-04-19T07:36:50.226Z,38.32
2018-04-19T07:39:18.593Z,39.26
2018-04-19T07:41:46.934Z,38.08
2018-04-19T07:44:15.277Z,37.86
2018-04-19T07:46:43.616Z,36.56
2018-04-19T07:49:11.961Z,36.46
2018-04-19T07:51:40.298Z,35.37
2018-04-19T07:54:08.658Z,34.86
2018-04-19T07:56:37.020Z,35.02
2018-04-19T07:59:05.361Z,34.60
2018-04-19T08:01:33.706Z,35.60
2018-04-19T08:04:02.047Z,36.41
2018-04-19T08:06:30.401Z,38.56
2018-04-19T08:08:58.733Z,36.11
2018-04-19T08:11:27.080Z,35.83
2018-04-19T08:13:56.136Z,35.83
2018-04-19T08:16:24.518Z,34.55
2018-04-19T08:18:52.870Z,33.05
2018-04-19T08:21:21.216Z,35.57
2018-04-19T08:23:49.545Z,35.06
2018-04-19T08:26:17.961Z,34.80
2018-04-19T08:28:46.301Z,34.28
2018-04-19T08:31:14.635Z,36.06
2018-04-19T08:33:42.985Z,37.68
2018-04-19T08:36:11.328Z,33.97
2018-04-19T08:38:39.693Z,33.66
2018-04-19T08:41:08.031Z,32.29
2018-04-19T08:43:36.402Z,31.16
2018-04-19T08:46:04.747Z,32.40
2018-04-19T08:48:33.110Z,31.85
2018-04-19T08:51:01.445Z,31.08
2018-04-19T08:53:29.806Z,31.17
2018-04-19T08:55:58.137Z,30.94
2018-04-19T08:58:26.489Z,31.06
2018-04-19T09:00:54.830Z,29.25
2018-04-19T09:03:23.246Z,31.54
2018-04-19T09:05:51.599Z,32.13
2018-04-19T09:08:19.964Z,28.30
2018-04-19T09:10:48.308Z,29.39
2018-04-19T09:13:16.719Z,28.63
2018-04-19T09:15:45.098Z,29.72
2018-04-19T09:18:13.441Z,28.04
2018-04-19T09:20:41.789Z,28.33
2018-04-19T09:23:10.120Z,29.24
2018-04-19T09:25:38.468Z,29.98
2018-04-19T09:28:06.821Z,31.10
2018-04-19T09:30:35.199Z,31.49
2018-04-19T09:33:03.527Z,28.53
2018-04-19T09:35:31.893Z,27.07
2018-04-19T09:38:00.329Z,27.92
2018-04-19T09:40:28.679Z,27.96
2018-04-19T09:42:57.038Z,29.76
2018-04-19T09:45:25.389Z,28.53
2018-04-19T09:47:53.729Z,28.68
2018-04-19T09:50:22.097Z,28.96
2018-04-19T09:52:50.431Z,27.32
2018-04-19T09:55:18.785Z,27.64
2018-04-19T09:57:58.826Z,28.34
2018-04-19T10:00:27.236Z,28.64
2018-04-19T10:02:58.432Z,29.36
2018-04-19T10:05:26.774Z,28.89
2018-04-19T10:07:55.123Z,28.74
2018-04-19T10:10:23.489Z,29.06
2018-04-19T10:12:51.851Z,29.14
2018-04-19T10:15:20.186Z,30.32
2018-04-19T10:17:48.518Z,28.55
2018-04-19T10:20:16.862Z,29.37
2018-04-19T10:22:45.218Z,30.59
2018-04-19T10:25:13.552Z,34.13
2018-04-19T10:27:41.917Z,31.84
2018-04-19T10:30:10.294Z,32.23
2018-04-19T10:32:38.644Z,32.82
2018-04-19T10:35:06.987Z,30.97
2018-04-19T10:37:35.340Z,31.53
2018-04-19T10:40:03.720Z,33.07
2018-04-19T10:42:32.079Z,31.61
2018-04-19T10:45:00.424Z,32.06
2018-04-19T10:47:28.773Z,31.49
2018-04-19T10:49:57.140Z,33.38
2018-04-19T10:52:25.528Z,32.68
2018-04-19T10:54:53.873Z,31.71
2018-04-19T10:57:22.211Z,33.81
2018-04-19T10:59:50.559Z,34.40
2018-04-19T11:02:18.903Z,32.08
2018-04-19T11:04:47.248Z,34.08
2018-04-19T11:07:15.583Z,32.59
2018-04-19T11:09:43.956Z,31.85
2018-04-19T11:12:12.285Z,31.72
2018-04-19T11:14:40.641Z,30.73
2018-04-19T11:17:08.973Z,30.41
2018-04-19T11:19:37.339Z,33.71
2018-04-19T11:22:05.689Z,31.50
2018-04-19T11:24:34.046Z,32.19
2018-04-19T11:27:02.391Z,33.03
2018-04-19T11:29:30.728Z,30.10
2018-04-19T11:31:59.062Z,30.95
2018-04-19T11:34:27.458Z,30.81
2018-04-19T11:36:55.805Z,31.07
2018-04-19T11:39:24.164Z,30.02
2018-04-19T11:41:52.519Z,29.61
2018-04-19T11:46:55.366Z,28.95
2018-04-19T11:49:23.757Z,31.04
2018-04-19T11:51:52.089Z,28.24
2018-04-19T11:54:20.432Z,27.24
2018-04-19T11:56:48.776Z,29.24
2018-04-19T11:59:17.105Z,31.16
2018-04-19T12:01:45.462Z,28.96
2018-04-19T12:04:13.799Z,28.55
2018-04-19T12:06:42.156Z,29.67
2018-04-19T12:09:10.514Z,28.48
2018-04-19T12:11:38.882Z,28.75
2018-04-19T12:14:07.202Z,28.42
2018-04-19T12:16:35.567Z,28.33
2018-04-19T12:19:03.900Z,28.42
2018-04-19T12:21:32.246Z,29.12
2018-04-19T12:24:00.597Z,29.27
2018-04-19T12:26:28.946Z,28.13
2018-04-19T12:28:57.304Z,27.81
2018-04-19T12:31:25.651Z,27.88
2018-04-19T12:33:53.987Z,29.88
2018-04-19T12:36:22.344Z,29.33
2018-04-19T12:38:50.695Z,29.41
2018-04-19T12:41:19.035Z,28.31
2018-04-19T12:43:47.390Z,27.72
2018-04-19T12:46:15.738Z,28.85
2018-04-19T12:48:44.090Z,31.61
2018-04-19T12:51:12.414Z,29.16
2018-04-19T12:53:40.751Z,27.79
2018-04-19T12:56:09.091Z,27.35
2018-04-19T12:58:37.449Z,27.18
2018-04-19T13:01:05.778Z,27.83
2018-04-19T13:03:34.143Z,27.85
2018-04-19T13:06:02.476Z,27.01
2018-04-19T13:08:30.818Z,27.92
2018-04-19T13:10:59.272Z,29.61
2018-04-19T13:13:27.622Z,30.37
2018-04-19T13:15:55.985Z,28.76
2018-04-19T13:18:24.323Z,30.06
2018-04-19T13:20:52.688Z,28.67
2018-04-19T13:23:21.059Z,26.26
2018-04-19T13:25:49.407Z,27.63
2018-04-19T13:28:17.737Z,26.15
2018-04-19T13:30:46.077Z,27.21
2018-04-19T13:33:14.410Z,29.34
2018-04-19T13:35:42.751Z,27.46
2018-04-19T13:38:11.090Z,27.41
2018-04-19T13:40:39.461Z,27.77
2018-04-19T13:43:07.804Z,27.78
2018-04-19T13:45:36.171Z,27.94
2018-04-19T13:48:04.516Z,28.42
2018-04-19T13:50:32.884Z,27.53
2018-04-19T13:53:01.242Z,29.52
2018-04-19T13:55:29.585Z,28.08
2018-04-19T13:57:57.926Z,27.90
2018-04-19T14:00:26.282Z,25.24
2018-04-19T14:02:54.610Z,27.87
2018-04-19T14:05:22.948Z,26.86
2018-04-19T14:07:53.157Z,27.80
2018-04-19T14:10:21.488Z,28.15
2018-04-19T14:12:49.851Z,26.29
2018-04-19T14:15:18.187Z,27.07
2018-04-19T14:17:46.523Z,29.98
2018-04-19T14:20:14.848Z,27.58
2018-04-19T14:22:43.189Z,27.25
2018-04-19T14:25:11.511Z,26.88
2018-04-19T14:27:39.948Z,26.23
2018-04-19T14:30:08.272Z,26.90
2018-04-19T14:32:36.618Z,26.71
2018-04-19T14:35:05.182Z,26.59
2018-04-19T14:37:33.535Z,26.68
2018-04-19T14:40:01.864Z,27.42
2018-04-19T14:42:30.223Z,27.16
2018-04-19T14:44:58.585Z,27.95
2018-04-19T14:47:26.934Z,28.37
2018-04-19T14:49:55.259Z,27.90
2018-04-19T14:52:23.610Z,28.25
2018-04-19T14:54:51.941Z,28.61
2018-04-19T14:57:20.297Z,28.29
2018-04-19T14:59:48.622Z,27.72
2018-04-19T15:02:16.953Z,28.73
2018-04-19T15:04:45.284Z,27.88
2018-04-19T15:07:13.639Z,29.06
2018-04-19T15:09:41.978Z,29.31
2018-04-19T15:12:10.400Z,30.19
2018-04-19T15:14:38.727Z,28.38
2018-04-19T15:17:07.074Z,28.90
2018-04-19T15:19:35.428Z,29.06
2018-04-19T15:22:03.859Z,29.39
2018-04-19T15:24:32.202Z,29.81
2018-04-19T15:27:00.550Z,30.31
2018-04-19T15:29:28.890Z,30.62
2018-04-19T15:31:57.286Z,29.94
2018-04-19T15:34:25.560Z,30.36
2018-04-19T15:36:54.909Z,31.11
2018-04-19T15:39:23.246Z,32.17
2018-04-19T15:41:51.592Z,31.66
2018-04-19T15:44:19.936Z,31.19
2018-04-19T15:46:48.266Z,32.45
2018-04-19T15:49:16.602Z,32.75
2018-04-19T15:51:45.003Z,32.62
2018-04-19T15:54:13.350Z,34.95
2018-04-19T15:56:41.667Z,34.33
2018-04-19T15:59:10.009Z,33.63
2018-04-19T16:01:38.392Z,34.72
2018-04-19T16:04:06.715Z,34.72
2018-04-19T16:06:35.056Z,35.71
2018-04-19T16:09:03.423Z,35.06
2018-04-19T16:11:31.747Z,35.63
2018-04-19T16:14:00.085Z,35.91
2018-04-19T16:16:28.431Z,34.53
2018-04-19T16:18:56.816Z,34.64
2018-04-19T16:21:25.104Z,34.73
2018-04-19T16:23:53.462Z,35.50
2018-04-19T16:26:21.789Z,36.46
2018-04-19T16:28:50.121Z,35.36
2018-04-19T16:31:18.503Z,35.45
2018-04-19T16:33:46.826Z,34.98
2018-04-19T16:36:15.170Z,36.81
2018-04-19T16:38:43.541Z,36.75
2018-04-19T16:41:11.856Z,36.50
2018-04-19T16:43:40.189Z,37.71
2018-04-19T16:46:08.525Z,37.03
2018-04-19T16:48:36.850Z,37.99
2018-04-19T16:51:05.188Z,37.92
2018-04-19T16:53:33.523Z,38.33
2018-04-19T16:56:01.918Z,38.55
2018-04-19T16:58:30.208Z,38.58
2018-04-19T17:00:58.587Z,37.35
2018-04-19T17:03:26.968Z,36.62
2018-04-19T17:05:55.273Z,38.06
2018-04-19T17:08:23.611Z,39.22
2018-04-19T17:10:52.094Z,37.36
2018-04-19T17:13:21.529Z,38.01
2018-04-19T17:15:49.841Z,39.66
2018-04-19T17:18:18.283Z,40.34
2018-04-19T17:20:46.704Z,39.45
2018-04-19T17:23:15.073Z,40.52
2018-04-19T17:25:43.404Z,41.29
2018-04-19T17:28:12.647Z,41.94
2018-04-19T17:30:40.974Z,41.83
2018-04-19T17:33:09.292Z,43.43
2018-04-19T17:35:37.624Z,42.58
2018-04-19T17:38:05.971Z,43.05
2018-04-19T17:40:34.305Z,43.58
2018-04-19T17:43:02.653Z,44.22
2018-04-19T17:45:30.986Z,44.57
2018-04-19T17:47:59.407Z,45.67
2018-04-19T17:50:27.679Z,46.61
2018-04-19T17:52:56.018Z,46.36
2018-04-19T17:55:24.376Z,47.03
2018-04-19T17:57:52.726Z,47.92
2018-04-19T18:00:21.047Z,48.03
2018-04-19T18:02:49.407Z,49.31
2018-04-19T18:05:17.755Z,48.88
2018-04-19T18:07:46.099Z,49.84
2018-04-19T18:10:14.418Z,50.85
2018-04-19T18:12:42.744Z,50.75
2018-04-19T18:15:15.587Z,52.42
2018-04-19T18:17:43.905Z,52.74
2018-04-19T18:20:12.246Z,52.17
2018-04-19T18:22:40.588Z,53.42
2018-04-19T18:25:08.930Z,54.30
2018-04-19T18:27:37.265Z,54.23
2018-04-19T18:30:05.611Z,54.37
2018-04-19T18:32:33.942Z,53.83
2018-04-19T18:35:02.289Z,54.69
2018-04-19T18:37:30.614Z,55.80
2018-04-19T18:39:58.955Z,55.97
2018-04-19T18:42:27.290Z,55.73
2018-04-19T18:44:55.644Z,56.33
2018-04-19T18:47:23.964Z,57.17
2018-04-19T18:49:52.338Z,57.02
2018-04-19T18:52:20.673Z,57.51
2018-04-19T18:54:49.063Z,58.33
2018-04-19T18:57:17.429Z,57.47
2018-04-19T18:59:45.768Z,57.78
2018-04-19T19:02:14.107Z,59.22
2018-04-19T19:04:42.432Z,60.05
2018-04-19T19:07:10.755Z,60.98
2018-04-19T19:09:39.107Z,60.24
2018-04-19T19:12:07.455Z,62.01
2018-04-19T19:14:36.626Z,59.78
2018-04-19T19:17:16.937Z,59.17
2018-04-19T19:19:57.039Z,58.52
2018-04-19T19:22:25.385Z,58.23
2018-04-19T19:24:53.707Z,57.72
2018-04-19T19:27:22.101Z,57.89
2018-04-19T19:29:50.449Z,57.86
2018-04-19T19:32:18.808Z,58.26
2018-04-19T19:34:47.182Z,61.07
2018-04-19T19:37:15.545Z,61.29
2018-04-19T19:39:43.885Z,61.86
2018-04-19T19:42:12.217Z,63.04
2018-04-19T19:44:42.227Z,63.97
2018-04-19T19:47:12.280Z,63.07
2018-04-19T19:49:40.701Z,63.90
2018-04-19T19:52:09.057Z,64.73
2018-04-19T19:54:37.398Z,65.20
2018-04-19T19:57:05.743Z,65.67
2018-04-19T19:59:34.103Z,66.18
2018-04-19T20:02:02.448Z,66.45
2018-04-19T20:04:30.804Z,66.63
2018-04-19T20:06:59.144Z,67.76
2018-04-19T20:09:27.475Z,67.69
2018-04-19T20:11:55.831Z,68.03
2018-04-19T20:14:24.234Z,66.79
2018-04-19T20:16:52.582Z,67.96
2018-04-19T20:19:20.925Z,67.77
2018-04-19T20:21:49.353Z,68.62
2018-04-19T20:24:17.700Z,67.52
2018-04-19T20:26:46.054Z,67.80
2018-04-19T20:29:14.385Z,69.15
2018-04-19T20:31:42.737Z,68.26
2018-04-19T20:34:11.684Z,68.82
2018-04-19T20:36:40.053Z,69.15
2018-04-19T20:39:08.388Z,69.16
2018-04-19T20:41:44.945Z,67.35
2018-04-19T20:44:13.986Z,68.81
2018-04-19T20:46:42.329Z,70.57
2018-04-19T20:49:10.753Z,69.33
2018-04-19T20:51:39.145Z,70.16
2018-04-19T20:54:07.478Z,70.21
2018-04-19T20:56:35.833Z,69.30
2018-04-19T20:59:05.036Z,69.62
2018-04-19T21:01:33.363Z,69.92
2018-04-19T21:04:01.717Z,71.03
2018-04-19T21:06:30.058Z,70.86
2018-04-19T21:08:58.415Z,71.20
2018-04-19T21:11:28.558Z,71.34
2018-04-19T21:13:56.903Z,71.56
2018-04-19T21:16:25.289Z,72.00
2018-04-19T21:18:53.640Z,72.75
2018-04-19T21:21:21.974Z,72.87
2018-04-19T21:23:50.332Z,73.13
2018-04-19T21:26:18.707Z,72.84
2018-04-19T21:28:47.045Z,73.35
2018-04-19T21:31:15.379Z,73.45
2018-04-19T21:33:43.753Z,72.58
2018-04-19T21:36:12.077Z,72.70
2018-04-19T21:38:40.759Z,73.50
2018-04-19T21:41:09.109Z,73.22
2018-04-19T21:43:37.460Z,73.02
2018-04-19T21:46:05.805Z,73.33
2018-04-19T21:48:34.131Z,73.93
2018-04-19T21:51:02.491Z,74.26
2018-04-19T21:53:30.866Z,74.01
2018-04-19T21:55:59.204Z,73.81
2018-04-19T21:58:27.539Z,74.15
2018-04-19T22:00:55.899Z,74.14
2018-04-19T22:03:24.249Z,74.12
2018-04-19T22:05:52.647Z,74.55
2018-04-19T22:08:20.986Z,74.63
2018-04-19T22:10:49.368Z,74.54
2018-04-19T22:13:17.861Z,75.32
2018-04-19T22:15:46.301Z,75.27
2018-04-19T22:18:14.628Z,75.93
2018-04-19T22:20:42.964Z,76.27
2018-04-19T22:23:11.310Z,76.04
2018-04-19T22:25:39.665Z,75.51
2018-04-19T22:28:08.011Z,74.63
2018-04-19T22:30:36.355Z,75.57
2018-04-19T22:33:04.696Z,75.39
2018-04-19T22:35:33.036Z,75.23
2018-04-19T22:38:01.515Z,76.48
2018-04-19T22:40:29.841Z,75.59
2018-04-19T22:42:58.200Z,76.24
2018-04-19T22:45:29.827Z,77.13
2018-04-19T22:47:58.237Z,76.49
2018-04-19T22:50:26.520Z,77.04
2018-04-19T22:52:54.870Z,76.89
2018-04-19T22:55:23.216Z,77.09
2018-04-19T22:57:51.568Z,77.08
2018-04-19T23:00:19.913Z,77.90
2018-04-19T23:02:48.276Z,78.66
2018-04-19T23:05:16.622Z,78.97
2018-04-19T23:07:44.977Z,79.12
2018-04-19T23:10:13.314Z,78.72
2018-04-19T23:12:41.671Z,79.21
2018-04-19T23:15:10.013Z,79.46
2018-04-19T23:17:38.401Z,79.97
2018-04-19T23:20:06.697Z,79.96
2018-04-19T23:22:35.029Z,80.07
2018-04-19T23:25:03.412Z,80.30
2018-04-19T23:27:31.721Z,80.57
2018-04-19T23:30:00.122Z,80.83
2018-04-19T23:32:28.464Z,81.07
2018-04-19T23:34:56.801Z,80.75
2018-04-19T23:37:25.123Z,81.30
2018-04-19T23:39:53.455Z,81.33
2018-04-19T23:42:21.787Z,81.02
2018-04-19T23:44:50.128Z,80.45
2018-04-19T23:47:18.463Z,80.59
2018-04-19T23:49:46.820Z,80.69
2018-04-19T23:52:15.148Z,80.52
2018-04-19T23:54:43.503Z,80.59
2018-04-19T23:57:11.920Z,81.24
2018-04-19T23:59:40.264Z,80.61
